Time;durP1;ratioP1;P1;durP2;ratioP2;P2;SDS_P1;SDS_P2;PMS_P1;PMS_P2;Temp;Humidity;BMP_temperature;BMP_pressure;BME280_temperature;BME280_humidity;BME280_pressure;Samples;Min_cycle;Max_cycle;Signal;HPM_P1;HPM_P2
2023/04/23 00:01:21;;;;;;;4.03;2.57;;;;;;;18.82;60.02;99745.94;5090784;28;20275;-65
2023/04/23 00:03:47;;;;;;;3.87;2.60;;;;;;;18.81;60.20;99744.31;5071789;28;20405;-65
2023/04/23 00:06:13;;;;;;;4.87;2.60;;;;;;;18.82;60.22;99740.25;5070578;28;20227;-65
2023/04/23 00:08:41;;;;;;;3.43;2.40;;;;;;;18.82;60.43;99743.91;5086941;28;20493;-65
2023/04/23 00:11:08;;;;;;;3.33;2.40;;;;;;;18.83;60.33;99736.97;5099107;28;20531;-65
2023/04/23 00:13:34;;;;;;;4.23;2.87;;;;;;;18.86;60.41;99744.75;5089629;28;20438;-65
2023/04/23 00:16:00;;;;;;;4.53;2.03;;;;;;;18.86;60.25;99744.75;5101459;28;20487;-65
2023/04/23 00:18:25;;;;;;;3.47;2.13;;;;;;;18.87;60.21;99749.25;5085494;28;20455;-65
2023/04/23 00:20:50;;;;;;;2.83;2.20;;;;;;;18.87;60.13;99745.59;5077384;28;20608;-66
2023/04/23 00:23:16;;;;;;;2.93;2.27;;;;;;;18.87;60.09;99754.16;5077881;28;20370;-65
2023/04/23 00:25:41;;;;;;;4.00;2.60;;;;;;;18.91;59.95;99755.81;5103548;28;20208;-65
2023/04/23 00:28:07;;;;;;;3.40;2.60;;;;;;;18.92;59.82;99751.75;5102366;28;20170;-65
2023/04/23 00:30:32;;;;;;;3.90;2.27;;;;;;;18.90;59.91;99757.06;5086011;28;20211;-65
2023/04/23 00:32:58;;;;;;;3.33;2.10;;;;;;;18.90;60.08;99754.19;5063851;28;20640;-65
2023/04/23 00:35:23;;;;;;;3.57;2.33;;;;;;;18.87;59.91;99746.38;5084066;28;20191;-65
2023/04/23 00:37:49;;;;;;;4.23;2.50;;;;;;;18.88;59.95;99750.09;5047085;28;20536;-65
2023/04/23 00:40:14;;;;;;;3.90;2.53;;;;;;;18.86;59.98;99753.34;5084482;28;20160;-65
2023/04/23 00:42:40;;;;;;;4.00;2.53;;;;;;;18.84;60.32;99752.91;5101128;28;20185;-65
2023/04/23 00:45:08;;;;;;;3.70;2.40;;;;;;;18.82;60.23;99761.06;5103569;28;20155;-65
2023/04/23 00:47:35;;;;;;;7.30;2.23;;;;;;;18.83;60.07;99759.88;5098637;28;20193;-65
2023/04/23 00:50:00;;;;;;;3.23;2.23;;;;;;;18.82;60.35;99761.06;5067438;28;20912;-65
2023/04/23 00:52:27;;;;;;;3.10;2.30;;;;;;;18.82;60.13;99755.34;5066592;28;20500;-65
2023/04/23 00:54:53;;;;;;;5.23;2.33;;;;;;;18.84;59.93;99758.63;5104261;28;20357;-65
2023/04/23 00:57:18;;;;;;;3.73;2.53;;;;;;;18.82;60.34;99760.25;5104483;28;20469;-65
2023/04/23 00:59:44;;;;;;;4.00;2.33;;;;;;;18.83;60.02;99761.88;5099552;28;20170;-65
2023/04/23 01:02:09;;;;;;;3.80;2.50;;;;;;;18.83;59.98;99768.44;5084743;28;20181;-65
2023/04/23 01:04:35;;;;;;;4.20;2.20;;;;;;;18.81;60.11;99750.84;5084191;28;20197;-65
2023/04/23 01:07:00;;;;;;;4.53;2.47;;;;;;;18.81;60.17;99756.56;5101183;28;20199;-65
2023/04/23 01:09:26;;;;;;;4.03;2.73;;;;;;;18.81;60.04;99745.13;5105334;28;20230;-65
2023/04/23 01:11:52;;;;;;;3.50;2.40;;;;;;;18.81;60.20;99750.84;5058184;28;20191;-65
2023/04/23 01:14:17;;;;;;;3.63;2.17;;;;;;;18.82;60.15;99743.91;5084785;28;20495;-65
2023/04/23 01:16:43;;;;;;;5.00;2.33;;;;;;;18.81;60.02;99741.47;5086482;28;20199;-65
2023/04/23 01:19:09;;;;;;;3.27;2.10;;;;;;;18.82;60.15;99752.47;5104282;28;20597;-65
2023/04/23 01:21:35;;;;;;;3.30;2.40;;;;;;;18.80;60.02;99749.19;5086246;28;20561;-65
2023/04/23 01:24:04;;;;;;;3.13;2.37;;;;;;;18.80;60.18;99752.06;5100121;28;20208;-65
2023/04/23 01:26:30;;;;;;;3.20;2.17;;;;;;;18.81;59.92;99767.19;5094501;28;21074;-66
2023/04/23 01:28:56;;;;;;;4.00;2.30;;;;;;;18.81;60.34;99764.34;5066880;28;20443;-65
2023/04/23 01:31:21;;;;;;;3.63;2.50;;;;;;;18.80;60.04;99766.38;5084654;28;20429;-65
2023/04/23 01:33:47;;;;;;;4.27;2.30;;;;;;;18.80;60.01;99766.38;5081535;28;20159;-65
2023/04/23 01:36:12;;;;;;;5.27;2.40;;;;;;;18.80;60.25;99765.53;5063353;28;20186;-65
2023/04/23 01:38:38;;;;;;;4.20;2.23;;;;;;;18.81;60.25;99767.19;5063533;28;20174;-65
2023/04/23 01:41:04;;;;;;;3.60;2.27;;;;;;;18.79;60.10;99759.00;5081145;28;20270;-65
2023/04/23 01:43:29;;;;;;;2.73;2.10;;;;;;;18.79;60.12;99767.59;5083466;28;20167;-66
2023/04/23 01:45:55;;;;;;;3.27;2.10;;;;;;;18.79;60.12;99761.88;5049015;28;20425;-65
2023/04/23 01:48:21;;;;;;;2.70;2.03;;;;;;;18.78;60.21;99757.38;5066362;28;20198;-65
2023/04/23 01:50:47;;;;;;;3.03;2.10;;;;;;;18.78;60.10;99751.66;5067700;28;20193;-65
2023/04/23 01:53:12;;;;;;;3.23;2.00;;;;;;;18.79;60.05;99758.19;5084105;28;20228;-65
2023/04/23 01:55:38;;;;;;;2.87;2.07;;;;;;;18.78;60.07;99763.09;5069528;28;20464;-65
2023/04/23 01:58:03;;;;;;;3.47;2.37;;;;;;;18.79;59.91;99764.72;5085185;28;20222;-65
2023/04/23 02:00:29;;;;;;;3.33;2.03;;;;;;;18.79;60.03;99763.91;5087073;28;20185;-65
2023/04/23 02:02:55;;;;;;;3.80;2.40;;;;;;;18.80;59.87;99762.66;5086771;28;20175;-65
2023/04/23 02:05:20;;;;;;;3.63;2.30;;;;;;;18.78;60.10;99763.09;5085790;28;20182;-65
2023/04/23 02:07:47;;;;;;;3.60;2.30;;;;;;;18.77;60.24;99767.16;5098257;28;20210;-65
2023/04/23 02:10:12;;;;;;;3.30;2.00;;;;;;;18.77;60.31;99772.88;5078463;28;20239;-65
2023/04/23 02:12:38;;;;;;;3.23;2.20;;;;;;;18.77;60.24;99770.00;5049531;28;20426;-65
2023/04/23 02:15:05;;;;;;;3.70;2.07;;;;;;;18.79;60.17;99766.75;5068320;28;20176;-65
2023/04/23 02:17:30;;;;;;;3.13;1.60;;;;;;;18.83;60.02;99764.75;5069674;28;20213;-65
2023/04/23 02:19:56;;;;;;;3.87;2.23;;;;;;;18.85;59.89;99765.16;5068924;28;20420;-65
2023/04/23 02:22:23;;;;;;;4.07;2.17;;;;;;;18.86;59.74;99756.19;5092237;28;20182;-65
2023/04/23 02:24:50;;;;;;;3.00;1.73;;;;;;;18.85;60.09;99757.41;5093161;28;20247;-65
2023/04/23 02:27:15;;;;;;;3.13;2.33;;;;;;;18.86;59.75;99759.06;5072302;28;20433;-65
2023/04/23 02:29:41;;;;;;;2.63;2.00;;;;;;;18.87;59.84;99754.16;5085418;28;20401;-65
2023/04/23 02:32:06;;;;;;;4.03;2.13;;;;;;;18.86;59.98;99761.91;5085422;28;20166;-65
2023/04/23 02:34:31;;;;;;;2.57;2.13;;;;;;;18.86;59.68;99753.34;5086872;28;20187;-65
2023/04/23 02:36:57;;;;;;;3.50;2.30;;;;;;;18.86;59.70;99741.91;5086262;28;20203;-65
2023/04/23 02:39:22;;;;;;;3.20;2.10;;;;;;;18.84;59.77;99747.19;5087799;28;20155;-65
2023/04/23 02:41:48;;;;;;;2.93;2.07;;;;;;;18.84;59.73;99741.47;5104169;28;20178;-65
2023/04/23 02:44:13;;;;;;;4.60;1.97;;;;;;;18.83;59.88;99744.72;5106714;28;20174;-65
2023/04/23 02:46:39;;;;;;;2.87;1.70;;;;;;;18.81;60.01;99738.59;5102966;28;20167;-65
2023/04/23 02:49:05;;;;;;;4.00;2.50;;;;;;;18.80;60.25;99754.94;5088805;28;20183;-65
2023/04/23 02:51:31;;;;;;;3.33;2.00;;;;;;;18.79;59.95;99759.00;5089303;28;20185;-66
2023/04/23 02:53:56;;;;;;;2.87;1.73;;;;;;;18.79;60.29;99759.00;5091724;28;20808;-65
2023/04/23 02:56:22;;;;;;;2.73;2.07;;;;;;;18.80;59.74;99763.50;5088720;28;20202;-65
2023/04/23 02:58:48;;;;;;;2.50;1.80;;;;;;;18.78;60.14;99763.09;5095102;28;20175;-65
2023/04/23 03:01:13;;;;;;;3.43;1.90;;;;;;;18.79;59.99;99761.03;5105127;28;20235;-65
2023/04/23 03:03:39;;;;;;;3.47;1.97;;;;;;;18.78;60.29;99757.38;5079963;28;20175;-65
2023/04/23 03:06:05;;;;;;;3.47;2.10;;;;;;;18.79;60.07;99752.44;5089796;28;20181;-65
2023/04/23 03:08:31;;;;;;;4.10;2.00;;;;;;;18.77;60.31;99752.84;5091876;28;20203;-65
2023/04/23 03:10:56;;;;;;;3.07;2.00;;;;;;;18.77;60.01;99749.97;5074358;28;20487;-65
2023/04/23 03:13:22;;;;;;;3.57;2.27;;;;;;;18.77;60.16;99754.91;5074152;28;20165;-65
2023/04/23 03:15:47;;;;;;;3.53;2.27;;;;;;;18.78;59.95;99754.50;5082250;28;20233;-65
2023/04/23 03:18:13;;;;;;;2.90;2.00;;;;;;;18.76;60.01;99758.97;5093663;28;20214;-65
2023/04/23 03:20:38;;;;;;;4.23;1.90;;;;;;;18.77;59.94;99767.16;5092244;28;20674;-65
2023/04/23 03:23:07;;;;;;;2.43;1.60;;;;;;;18.78;59.92;99760.22;5092983;28;20183;-65
2023/04/23 03:25:33;;;;;;;4.77;2.37;;;;;;;18.76;59.78;99762.66;5059747;28;20197;-65
2023/04/23 03:27:58;;;;;;;2.53;1.70;;;;;;;18.77;60.15;99752.84;5090473;28;20767;-65
2023/04/23 03:30:24;;;;;;;4.00;1.90;;;;;;;18.77;60.00;99755.69;5091911;28;20171;-65
2023/04/23 03:32:49;;;;;;;3.30;2.23;;;;;;;18.78;60.31;99765.13;5091262;28;20202;-65
2023/04/23 03:35:15;;;;;;;2.40;1.50;;;;;;;18.77;60.12;99764.28;5085842;28;20186;-65
2023/04/23 03:37:41;;;;;;;2.50;2.07;;;;;;;18.75;60.03;99766.72;5099326;28;20198;-65
2023/04/23 03:40:07;;;;;;;3.20;2.00;;;;;;;18.78;59.86;99765.13;5072497;28;20171;-65
2023/04/23 03:42:33;;;;;;;3.50;2.20;;;;;;;18.76;60.13;99762.66;5094952;28;20190;-65
2023/04/23 03:45:01;;;;;;;2.90;1.63;;;;;;;18.77;60.22;99763.47;5086993;28;20435;-65
2023/04/23 03:47:27;;;;;;;3.13;1.80;;;;;;;18.77;60.04;99769.19;5073261;28;20703;-65
2023/04/23 03:49:53;;;;;;;3.33;2.10;;;;;;;18.76;59.93;99771.22;5102330;28;20420;-65
2023/04/23 03:52:18;;;;;;;2.83;1.93;;;;;;;18.76;60.39;99779.81;5104919;28;20181;-65
2023/04/23 03:54:44;;;;;;;3.00;1.83;;;;;;;18.76;60.06;99779.00;5098874;28;20440;-65
2023/04/23 03:57:12;;;;;;;3.13;1.90;;;;;;;18.75;59.84;99781.03;5103360;28;20209;-65
2023/04/23 03:59:38;;;;;;;2.70;1.93;;;;;;;18.75;59.82;99772.44;5097218;28;20197;-65
2023/04/23 04:02:03;;;;;;;2.37;1.73;;;;;;;18.76;59.97;99785.53;5101910;28;20420;-65
2023/04/23 04:04:29;;;;;;;2.30;1.50;;;;;;;18.75;60.02;99769.59;5083184;28;20190;-65
2023/04/23 04:06:55;;;;;;;6.67;2.23;;;;;;;18.74;60.19;99770.81;5082975;28;20273;-65
2023/04/23 04:09:21;;;;;;;4.10;2.00;;;;;;;18.74;60.13;99776.53;5082471;28;20421;-65
2023/04/23 04:11:46;;;;;;;3.53;2.20;;;;;;;18.75;59.89;99775.31;5082330;28;20413;-65
2023/04/23 04:14:12;;;;;;;3.20;1.97;;;;;;;18.77;60.18;99767.16;5065402;28;20206;-65
2023/04/23 04:16:38;;;;;;;4.00;2.20;;;;;;;18.76;60.27;99762.66;5085645;28;20230;-65
2023/04/23 04:19:03;;;;;;;2.80;2.20;;;;;;;18.79;60.17;99764.72;5082420;28;20417;-65
2023/04/23 04:21:29;;;;;;;3.30;2.00;;;;;;;18.83;59.93;99764.75;5089597;28;20186;-65
2023/04/23 04:23:55;;;;;;;3.20;2.07;;;;;;;18.84;59.91;99761.50;5104037;28;20182;-65
2023/04/23 04:26:20;;;;;;;3.10;1.90;;;;;;;18.83;59.89;99759.88;5083212;28;20162;-65
2023/04/23 04:28:45;;;;;;;2.77;1.70;;;;;;;18.82;59.70;99761.06;5085847;28;20228;-65
2023/04/23 04:31:13;;;;;;;3.10;1.90;;;;;;;18.81;59.93;99750.03;5084809;28;20163;-65
2023/04/23 04:33:38;;;;;;;3.07;2.17;;;;;;;18.81;59.84;99750.84;5085805;28;20246;-65
2023/04/23 04:36:04;;;;;;;2.70;1.83;;;;;;;18.81;59.90;99750.84;5079139;28;20494;-65
2023/04/23 04:38:29;;;;;;;2.60;1.90;;;;;;;18.82;59.78;99748.81;5079062;28;20182;-65
2023/04/23 04:40:58;;;;;;;3.53;1.80;;;;;;;18.80;59.83;99749.19;5084171;28;20187;-66
2023/04/23 04:43:25;;;;;;;2.60;1.77;;;;;;;18.80;59.92;99749.19;5105767;28;20180;-65
2023/04/23 04:45:51;;;;;;;2.70;1.53;;;;;;;18.82;59.88;99746.75;5075999;28;20936;-66
2023/04/23 04:48:16;;;;;;;3.53;1.90;;;;;;;18.80;60.11;99737.75;5066270;28;20505;-65
2023/04/23 04:50:42;;;;;;;2.80;1.73;;;;;;;18.78;59.94;99756.53;5068611;28;20194;-65
2023/04/23 04:53:07;;;;;;;2.30;1.80;;;;;;;18.77;60.07;99754.91;5086058;28;20189;-65
2023/04/23 04:55:32;;;;;;;3.43;1.80;;;;;;;18.77;60.00;99754.91;5104832;28;20198;-65
2023/04/23 04:57:58;;;;;;;3.00;1.70;;;;;;;18.78;60.15;99757.38;5077204;28;20253;-65
2023/04/23 05:00:28;;;;;;;2.73;2.03;;;;;;;18.75;59.83;99755.28;5100395;28;20179;-65
2023/04/23 05:02:54;;;;;;;2.93;1.70;;;;;;;18.78;60.10;99756.53;5103828;28;20286;-65
2023/04/23 05:05:20;;;;;;;2.80;1.80;;;;;;;18.76;60.08;99748.34;5056423;28;20448;-65
2023/04/23 05:07:46;;;;;;;3.80;1.67;;;;;;;18.77;59.77;99755.69;5056412;28;20228;-65
2023/04/23 05:10:12;;;;;;;2.60;1.60;;;;;;;18.78;59.99;99750.81;5105887;28;20460;-65
2023/04/23 05:12:40;;;;;;;2.67;2.00;;;;;;;18.77;59.71;99749.97;5088546;28;20159;-65
2023/04/23 05:15:09;;;;;;;2.80;1.70;;;;;;;18.77;59.80;99749.97;5107235;28;20401;-65
2023/04/23 05:17:38;;;;;;;2.60;1.50;;;;;;;18.77;60.00;99758.56;5090475;28;20528;-65
2023/04/23 05:20:04;;;;;;;3.43;2.00;;;;;;;18.77;60.04;99752.84;5068747;28;20453;-65
2023/04/23 05:22:30;;;;;;;2.50;1.80;;;;;;;18.75;59.79;99745.88;5086560;28;20436;-65
2023/04/23 05:24:55;;;;;;;2.80;1.80;;;;;;;18.75;60.05;99748.75;5062422;28;20440;-66
2023/04/23 05:27:20;;;;;;;2.77;1.70;;;;;;;18.76;60.00;99754.06;5078412;28;20225;-66
2023/04/23 05:29:46;;;;;;;2.43;1.60;;;;;;;18.76;60.08;99738.97;5083000;28;20198;-66
2023/04/23 05:32:11;;;;;;;2.90;1.60;;;;;;;18.77;59.94;99744.25;5099721;28;20203;-66
2023/04/23 05:34:38;;;;;;;2.90;1.73;;;;;;;18.77;59.80;99752.03;5100913;28;20170;-65
2023/04/23 05:37:03;;;;;;;2.70;1.87;;;;;;;18.75;59.77;99746.72;5102337;28;20401;-65
2023/04/23 05:39:29;;;;;;;2.73;1.57;;;;;;;18.76;59.95;99747.53;5093534;28;20439;-66
2023/04/23 05:41:55;;;;;;;2.30;1.60;;;;;;;18.76;59.76;99753.25;5109720;28;20173;-65
2023/04/23 05:44:20;;;;;;;3.40;2.07;;;;;;;18.76;60.01;99756.94;5104919;28;20187;-66
2023/04/23 05:46:46;;;;;;;3.17;1.70;;;;;;;18.76;60.22;99754.06;5086102;28;20179;-66
2023/04/23 05:49:11;;;;;;;2.23;1.47;;;;;;;18.76;59.83;99742.63;5090296;28;20183;-66
2023/04/23 05:51:36;;;;;;;2.90;1.67;;;;;;;18.77;60.07;99744.25;5078552;28;20229;-66
2023/04/23 05:54:02;;;;;;;2.40;1.53;;;;;;;18.75;59.79;99741.00;5083158;28;20186;-65
2023/04/23 05:56:27;;;;;;;2.63;1.50;;;;;;;18.77;59.71;99738.53;5067482;28;20207;-66
2023/04/23 05:58:53;;;;;;;2.47;1.60;;;;;;;18.77;60.29;99737.75;5092117;28;20155;-65
2023/04/23 06:01:18;;;;;;;2.40;1.40;;;;;;;18.76;59.93;99748.34;5051391;28;20180;-65
2023/04/23 06:03:44;;;;;;;2.40;1.60;;;;;;;18.76;59.79;99747.53;5044699;28;20175;-65
2023/04/23 06:06:11;;;;;;;2.40;1.40;;;;;;;18.75;59.93;99749.56;5081932;28;20154;-66
2023/04/23 06:08:37;;;;;;;2.33;1.53;;;;;;;18.75;60.04;99741.00;5061979;28;20566;-66
2023/04/23 06:11:03;;;;;;;2.53;1.83;;;;;;;18.76;60.10;99734.06;5086052;28;20433;-65
2023/04/23 06:13:29;;;;;;;3.70;1.70;;;;;;;18.75;60.04;99741.00;5093000;28;20437;-66
2023/04/23 06:15:55;;;;;;;3.40;1.77;;;;;;;18.77;60.12;99738.53;5066560;28;20207;-66
2023/04/23 06:18:21;;;;;;;1.97;1.30;;;;;;;18.77;60.04;99738.53;5067124;28;20781;-65
2023/04/23 06:20:47;;;;;;;2.23;1.40;;;;;;;18.82;59.89;99743.91;5092062;28;20175;-65
2023/04/23 06:23:13;;;;;;;4.80;1.50;;;;;;;18.86;59.67;99741.09;5073975;28;20210;-66
2023/04/23 06:25:38;;;;;;;2.60;1.40;;;;;;;18.82;59.64;99731.66;5101963;28;20514;-65
2023/04/23 06:28:04;;;;;;;3.13;1.70;;;;;;;18.82;59.73;99741.03;5090252;28;20174;-66
2023/04/23 06:30:29;;;;;;;2.60;1.57;;;;;;;18.81;59.88;99736.53;5071241;28;20184;-66
2023/04/23 06:32:54;;;;;;;2.23;1.57;;;;;;;18.81;59.81;99736.53;5051780;28;20199;-66
2023/04/23 06:35:20;;;;;;;2.57;1.63;;;;;;;18.83;59.74;99731.28;5068526;28;20178;-66
2023/04/23 06:37:45;;;;;;;2.20;1.40;;;;;;;18.87;59.56;99734.16;5078303;28;20273;-66
2023/04/23 06:40:11;;;;;;;2.00;1.07;;;;;;;18.89;59.67;99720.25;5090501;28;20163;-65
2023/04/23 06:42:36;;;;;;;4.90;1.33;;;;;;;18.89;59.81;99728.84;5080301;28;20186;-66
2023/04/23 06:45:05;;;;;;;3.27;1.90;;;;;;;18.87;59.71;99720.66;5074414;28;20556;-66
2023/04/23 06:47:30;;;;;;;2.13;1.50;;;;;;;18.86;59.54;99716.16;5063294;28;20221;-65
2023/04/23 06:49:58;;;;;;;2.63;1.80;;;;;;;18.86;59.67;99718.22;5074198;28;20433;-66
2023/04/23 06:52:24;;;;;;;4.20;1.70;;;;;;;18.85;59.70;99716.53;5092040;28;20162;-65
2023/04/23 06:54:50;;;;;;;2.57;1.60;;;;;;;18.84;59.79;99720.63;5092415;28;20405;-66
2023/04/23 06:57:15;;;;;;;2.40;1.60;;;;;;;18.82;59.88;99723.88;5069792;28;20203;-66
2023/04/23 06:59:40;;;;;;;2.20;1.40;;;;;;;18.81;59.92;99713.66;5087781;28;20720;-66
2023/04/23 07:02:06;;;;;;;1.93;1.27;;;;;;;18.81;59.53;99710.00;5075335;28;20222;-66
2023/04/23 07:04:32;;;;;;;2.87;1.83;;;;;;;18.82;59.58;99709.56;5055097;28;20177;-66
2023/04/23 07:06:57;;;;;;;3.97;1.63;;;;;;;18.81;59.55;99715.72;5054492;28;20218;-66
2023/04/23 07:09:23;;;;;;;2.27;1.40;;;;;;;18.82;59.98;99711.63;5037151;28;20230;-66
2023/04/23 07:11:48;;;;;;;2.50;1.67;;;;;;;18.83;59.51;99704.69;5089669;28;20190;-65
2023/04/23 07:14:14;;;;;;;3.10;2.10;;;;;;;18.83;59.71;99704.69;5072798;28;20618;-66
2023/04/23 07:16:39;;;;;;;2.80;1.63;;;;;;;18.84;59.81;99709.19;5051680;28;20827;-66
2023/04/23 07:19:05;;;;;;;2.40;1.40;;;;;;;18.83;59.44;99707.56;5071988;28;20634;-66
2023/04/23 07:21:31;;;;;;;2.00;1.27;;;;;;;18.82;59.64;99701.00;5080026;28;20253;-66
2023/04/23 07:23:58;;;;;;;2.80;1.43;;;;;;;18.81;59.90;99699.38;5073448;28;20236;-66
2023/04/23 07:26:25;;;;;;;3.27;1.77;;;;;;;18.84;59.66;99692.03;5070828;28;20393;-66
2023/04/23 07:28:50;;;;;;;2.30;1.40;;;;;;;18.82;59.45;99694.47;5075265;28;20448;-66
2023/04/23 07:31:16;;;;;;;2.90;1.60;;;;;;;18.82;59.77;99698.13;5070355;28;20495;-67
2023/04/23 07:33:42;;;;;;;2.50;1.50;;;;;;;18.82;59.83;99691.63;5079205;28;20187;-65
2023/04/23 07:36:07;;;;;;;2.40;1.47;;;;;;;18.81;60.04;99692.84;5082666;28;20489;-66
2023/04/23 07:38:33;;;;;;;2.00;1.30;;;;;;;18.81;59.81;99679.34;5071397;28;20178;-66
2023/04/23 07:40:58;;;;;;;2.20;1.33;;;;;;;18.80;60.23;99683.44;5051614;28;20249;-66
2023/04/23 07:43:23;;;;;;;2.70;1.50;;;;;;;18.79;59.60;99680.97;5069740;28;20234;-66
2023/04/23 07:45:49;;;;;;;2.80;1.50;;;;;;;18.80;60.21;99680.56;5069583;28;20994;-67
2023/04/23 07:48:14;;;;;;;2.40;1.53;;;;;;;18.80;60.04;99680.56;5071896;28;20302;-67
2023/04/23 07:50:40;;;;;;;3.23;1.57;;;;;;;18.80;60.39;99676.88;5071741;28;20190;-67
2023/04/23 07:53:05;;;;;;;2.00;1.50;;;;;;;18.79;59.96;99676.06;5047775;28;20249;-67
2023/04/23 07:55:31;;;;;;;3.00;1.57;;;;;;;18.80;60.04;99672.00;5048044;28;20191;-66
2023/04/23 07:57:56;;;;;;;2.73;1.97;;;;;;;18.81;60.16;99669.97;5069000;28;20171;-66
2023/04/23 08:00:21;;;;;;;1.90;1.23;;;;;;;18.80;59.84;99663.41;5071589;28;20188;-66
2023/04/23 08:02:47;;;;;;;2.83;1.50;;;;;;;18.82;60.11;99660.97;5088669;28;20186;-67
2023/04/23 08:05:12;;;;;;;5.40;1.70;;;;;;;18.83;59.64;99654.03;5075390;28;20171;-66
2023/04/23 08:07:38;;;;;;;2.73;1.73;;;;;;;18.83;59.59;99659.78;5070415;28;20194;-67
2023/04/23 08:10:05;;;;;;;2.40;1.40;;;;;;;18.83;59.71;99651.19;5075948;28;20226;-67
2023/04/23 08:12:32;;;;;;;1.90;1.30;;;;;;;18.84;59.79;99647.09;5072793;28;20174;-65
2023/04/23 08:14:58;;;;;;;2.50;1.50;;;;;;;18.86;59.70;99646.72;5090524;28;20800;-66
2023/04/23 08:17:23;;;;;;;2.40;1.40;;;;;;;18.86;59.40;99647.50;5078351;28;20456;-67
2023/04/23 08:19:49;;;;;;;2.60;1.60;;;;;;;18.86;59.78;99644.66;5070018;28;20179;-66
2023/04/23 08:22:15;;;;;;;2.23;1.47;;;;;;;18.86;59.53;99641.78;5069270;28;20174;-66
2023/04/23 08:24:41;;;;;;;3.10;1.80;;;;;;;18.89;59.36;99640.16;5069593;28;20912;-66
2023/04/23 08:27:07;;;;;;;2.20;1.30;;;;;;;18.91;59.30;99635.69;5071090;28;20179;-66
2023/04/23 08:29:32;;;;;;;2.50;1.57;;;;;;;18.89;59.41;99631.59;5071075;28;20427;-66
2023/04/23 08:31:58;;;;;;;2.53;1.20;;;;;;;18.88;59.53;99629.97;5074117;28;20541;-66
2023/04/23 08:34:23;;;;;;;2.63;1.47;;;;;;;18.90;59.45;99627.50;5070035;28;20205;-67
2023/04/23 08:36:49;;;;;;;1.77;1.00;;;;;;;18.88;59.54;99627.94;5071948;28;20206;-69
2023/04/23 08:39:14;;;;;;;2.83;1.40;;;;;;;18.89;59.61;99625.88;5035525;28;20321;-67
2023/04/23 08:41:42;;;;;;;2.40;1.60;;;;;;;18.88;59.54;99627.94;5036211;28;20163;-67
2023/04/23 08:44:18;;;;;;;2.40;1.30;;;;;;;18.88;59.64;99622.22;5053724;28;20177;-66
2023/04/23 08:46:44;;;;;;;2.33;1.30;;;;;;;18.88;59.30;99622.22;5039779;28;20444;-66
2023/04/23 08:49:14;;;;;;;3.70;1.40;;;;;;;18.90;59.49;99628.34;5069883;28;20420;-66
2023/04/23 08:51:43;;;;;;;2.90;1.40;;;;;;;18.93;59.59;99627.56;5071967;28;20186;-66
2023/04/23 08:54:09;;;;;;;2.27;1.50;;;;;;;18.92;59.52;99623.03;5068940;28;20429;-66
2023/04/23 08:56:36;;;;;;;2.07;1.30;;;;;;;18.93;59.32;99618.97;5069563;28;20523;-66
2023/04/23 08:59:02;;;;;;;2.57;1.40;;;;;;;18.97;59.35;99618.97;5051094;28;20421;-66
2023/04/23 09:01:28;;;;;;;2.43;1.70;;;;;;;18.98;59.31;99612.03;5053644;28;20445;-66
2023/04/23 09:03:54;;;;;;;2.77;1.63;;;;;;;18.95;59.80;99613.66;5050831;28;20528;-66
2023/04/23 09:06:19;;;;;;;2.43;1.20;;;;;;;18.91;59.79;99612.81;5071660;28;20921;-66
2023/04/23 09:08:45;;;;;;;2.87;1.87;;;;;;;18.90;59.86;99604.63;5034903;28;20199;-66
2023/04/23 09:11:10;;;;;;;1.97;1.27;;;;;;;18.90;59.78;99598.91;5053292;28;20226;-66
2023/04/23 09:13:36;;;;;;;3.63;1.33;;;;;;;18.90;60.02;99599.75;5048546;28;20179;-66
2023/04/23 09:16:01;;;;;;;2.57;1.60;;;;;;;18.91;59.91;99601.38;5069352;28;20206;-66
2023/04/23 09:18:27;;;;;;;2.77;1.43;;;;;;;18.90;59.98;99590.31;5057263;28;20243;-66
2023/04/23 09:20:52;;;;;;;2.50;1.30;;;;;;;18.90;59.92;99591.16;5051857;28;20183;-66
2023/04/23 09:23:17;;;;;;;1.93;1.30;;;;;;;18.91;59.94;99594.84;5047951;28;20226;-66
2023/04/23 09:25:43;;;;;;;2.23;1.47;;;;;;;18.90;59.72;99594.00;5031100;28;20256;-66
2023/04/23 09:28:13;;;;;;;3.10;1.60;;;;;;;18.91;59.70;99583.41;5068085;28;20252;-66
2023/04/23 09:30:47;;;;;;;3.90;1.40;;;;;;;18.91;59.40;99578.50;5039185;28;20215;-66
2023/04/23 09:33:15;;;;;;;3.30;1.40;;;;;;;18.91;59.49;99577.69;5030231;28;20413;-66
2023/04/23 09:35:42;;;;;;;4.03;1.73;;;;;;;18.90;59.54;99581.75;5033084;28;20465;-66
2023/04/23 09:38:09;;;;;;;2.87;1.30;;;;;;;18.91;59.68;99572.75;5031420;28;20398;-67
2023/04/23 09:40:35;;;;;;;2.27;1.50;;;;;;;18.91;59.79;99571.97;5051475;28;20480;-65
2023/04/23 09:43:02;;;;;;;2.53;1.43;;;;;;;18.90;59.60;99574.00;5060496;28;20845;-67
2023/04/23 09:45:28;;;;;;;2.60;1.50;;;;;;;18.91;59.39;99563.38;5051394;28;20496;-66
2023/04/23 09:47:55;;;;;;;2.63;1.40;;;;;;;18.91;59.63;99555.59;5039046;28;21027;-66
2023/04/23 09:50:34;;;;;;;2.73;1.43;;;;;;;18.91;59.89;99563.38;5031124;28;20445;-66
2023/04/23 09:52:59;;;;;;;4.03;1.60;;;;;;;18.91;59.71;99554.81;5031068;28;20410;-66
2023/04/23 09:55:37;;;;;;;2.83;1.67;;;;;;;18.91;59.71;99554.81;5063763;28;20448;-66
2023/04/23 09:58:03;;;;;;;2.57;1.50;;;;;;;18.90;59.48;99550.28;5069038;28;20245;-66
2023/04/23 10:00:36;;;;;;;2.57;1.50;;;;;;;18.91;59.59;99552.75;5068815;28;20485;-66
2023/04/23 10:03:02;;;;;;;2.63;1.40;;;;;;;18.91;59.50;99552.75;5044574;28;20926;-66
2023/04/23 10:05:28;;;;;;;2.40;1.70;;;;;;;18.93;59.66;99549.50;5048998;28;20509;-66
2023/04/23 10:07:55;;;;;;;2.83;1.67;;;;;;;18.93;59.57;99547.47;5014268;28;20210;-66
2023/04/23 10:10:20;;;;;;;2.57;1.23;;;;;;;18.94;59.65;99548.25;5041598;28;20318;-66
2023/04/23 10:12:46;;;;;;;2.20;1.10;;;;;;;18.92;59.60;99537.22;5070984;28;20441;-66
2023/04/23 10:15:12;;;;;;;2.70;1.57;;;;;;;18.92;59.94;99540.06;5054495;28;20175;-66
2023/04/23 10:17:38;;;;;;;2.37;1.30;;;;;;;18.93;59.59;99538.88;5034761;28;20219;-66
2023/04/23 10:20:07;;;;;;;2.77;1.67;;;;;;;18.92;59.63;99540.06;5067286;28;20175;-67
2023/04/23 10:22:33;;;;;;;2.10;1.30;;;;;;;18.93;59.66;99541.75;5081733;28;20281;-66
2023/04/23 10:25:00;;;;;;;2.20;1.40;;;;;;;18.93;59.62;99541.75;5091921;28;20412;-66
2023/04/23 10:27:27;;;;;;;4.10;1.60;;;;;;;18.95;59.42;99532.72;5091649;28;20454;-66
2023/04/23 10:29:53;;;;;;;2.70;1.70;;;;;;;18.94;59.38;99531.09;5090634;28;20421;-66
2023/04/23 10:32:18;;;;;;;2.17;1.43;;;;;;;18.94;59.44;99525.38;5035378;28;20521;-66
2023/04/23 10:34:44;;;;;;;2.70;1.43;;;;;;;18.94;60.08;99514.78;5050922;28;20174;-66
2023/04/23 10:37:10;;;;;;;2.13;1.40;;;;;;;18.95;59.83;99515.56;5007962;28;20207;-66
2023/04/23 10:39:36;;;;;;;2.27;1.53;;;;;;;18.97;59.45;99508.22;5039282;28;20605;-66
2023/04/23 10:42:01;;;;;;;2.40;1.43;;;;;;;18.99;59.29;99504.97;5053071;28;20603;-66
2023/04/23 10:44:36;;;;;;;2.43;1.40;;;;;;;19.03;59.03;99509.50;5061493;28;20237;-66
2023/04/23 10:47:02;;;;;;;2.40;1.30;;;;;;;19.06;59.05;99497.22;5086266;28;20174;-66
2023/04/23 10:49:32;;;;;;;2.77;1.60;;;;;;;19.06;59.24;99502.16;5073588;28;20496;-66
2023/04/23 10:52:01;;;;;;;2.70;1.43;;;;;;;19.04;59.25;99482.53;5089168;28;20190;-65
2023/04/23 10:54:28;;;;;;;5.57;1.70;;;;;;;19.07;59.28;99480.91;5066388;28;20833;-66
2023/04/23 10:57:00;;;;;;;6.03;1.60;;;;;;;19.07;59.23;99480.91;5092266;28;20521;-66
2023/04/23 10:59:28;;;;;;;3.90;1.63;;;;;;;19.08;59.50;99474.78;5074116;28;20424;-66
2023/04/23 11:01:55;;;;;;;2.70;1.40;;;;;;;19.07;59.03;99475.19;5072459;28;20424;-66
2023/04/23 11:04:25;;;;;;;3.07;1.63;;;;;;;19.09;59.09;99467.00;5087437;28;20435;-66
2023/04/23 11:06:55;;;;;;;2.73;1.77;;;;;;;19.05;59.33;99467.00;5074341;28;20923;-66
2023/04/23 11:09:38;;;;;;;2.80;1.40;;;;;;;19.06;59.18;99454.31;5085731;28;20904;-66
2023/04/23 11:12:26;;;;;;;3.67;1.60;;;;;;;19.03;59.40;99455.16;5092035;28;20432;-66
2023/04/23 11:14:53;;;;;;;5.00;1.00;;;;;;;19.01;59.42;99445.34;5076691;28;20535;-66
2023/04/23 11:17:23;;;;;;;2.93;1.50;;;;;;;18.98;59.60;99446.97;5043756;28;20465;-66
2023/04/23 11:20:12;;;;;;;4.67;1.80;;;;;;;18.99;59.33;99437.16;5022895;28;20448;-66
2023/04/23 11:22:43;;;;;;;4.10;1.60;;;;;;;18.99;59.43;99437.16;5070851;28;20436;-66
2023/04/23 11:25:10;;;;;;;3.57;1.37;;;;;;;19.00;59.67;99437.94;5070120;28;20762;-66
2023/04/23 11:27:40;;;;;;;2.23;1.37;;;;;;;18.99;59.64;99434.28;5071268;28;20528;-66
2023/04/23 11:30:11;;;;;;;2.73;1.30;;;;;;;19.00;59.30;99426.50;5091050;28;20974;-65